<?xml version="1.0" encoding="UTF-8" standalone="no" ?>
<gpx xmlns="http://www.topografix.com/GPX/1/1" xmlns:xsi="http://www.w3.org/2001/XMLSchema-instance" xsi:schemaLocation="http://www.topografix.com/GPX/1/1 http://www.topografix.com/GPX/1/1/gpx.xsd" version="1.1" creator="VisuGPX - https://www.visugpx.com">
  <metadata>
    <name>GR441 Kevin</name>
  </metadata>
  <wpt lat="45.86793" lon="2.95388">
    <ele>900.5</ele>
    <name><![CDATA[Bivy 1]]></name>
    <type><![CDATA[camping]]></type>
  </wpt>
  <wpt lat="45.77933" lon="2.86085">
    <ele>758</ele>
    <name><![CDATA[Bivy 2]]></name>
    <desc><![CDATA[Bivouac 2]]></desc>
    <type><![CDATA[camping]]></type>
  </wpt>
  <wpt lat="45.64793" lon="2.85852">
    <ele>1207.1</ele>
    <name><![CDATA[Bivy 3]]></name>
    <type><![CDATA[camping]]></type>
  </wpt>
  <wpt lat="45.71022" lon="2.94378">
    <ele>1043.6</ele>
    <name><![CDATA[Bivy 4]]></name>
    <type><![CDATA[camping]]></type>
  </wpt>
  <wpt lat="45.7932" lon="2.9464">
    <ele>1028.1</ele>
    <name><![CDATA[Bivy 5]]></name>
    <type><![CDATA[camping]]></type>
  </wpt>
  <wpt lat="45.86932" lon="2.98248">
    <ele>807</ele>
    <name><![CDATA[Bivy 6a]]></name>
    <type><![CDATA[camping]]></type>
  </wpt>
  <wpt lat="45.88162" lon="3.03012">
    <ele>659.4</ele>
    <name><![CDATA[Bivy 6b]]></name>
    <type><![CDATA[camping]]></type>
  </wpt>
  <wpt lat="45.90557" lon="2.99635">
    <ele>720.2</ele>
    <name><![CDATA[Départ / Arrivée1]]></name>
    <type><![CDATA[user]]></type>
  </wpt>
  <trk>
    <name><![CDATA[J6]]></name>
    <extensions>
      <line xmlns="http://www.topografix.com/GPX/gpx_style/0/2">
        <color>ff2600</color>
        <width>4</width>
      </line>
    </extensions>
    <trkseg>
      <trkpt lat="45.7932" lon="2.94674">
        <ele>1034.592766</ele>
        <time>2022-03-06T17:49:35Z</time>
      </trkpt>
      <trkpt lat="45.79511" lon="2.94927">
        <ele>1028.323238</ele>
        <time>2022-03-06T17:54:05Z</time>
      </trkpt>
      <trkpt lat="45.79511" lon="2.94942">
        <ele>1027.870065</ele>
        <time>2022-03-06T17:54:17Z</time>
      </trkpt>
      <trkpt lat="45.7952" lon="2.94968">
        <ele>1027.010005</ele>
        <time>2022-03-06T17:54:38Z</time>
      </trkpt>
      <trkpt lat="45.7955" lon="2.95009">
        <ele>1025.237781</ele>
        <time>2022-03-06T17:55:25Z</time>
      </trkpt>
      <trkpt lat="45.79563" lon="2.95037">
        <ele>1024.230483</ele>
        <time>2022-03-06T17:55:51Z</time>
      </trkpt>
      <trkpt lat="45.79597" lon="2.95075">
        <ele>1022.227468</ele>
        <time>2022-03-06T17:56:39Z</time>
      </trkpt>
      <trkpt lat="45.79608" lon="2.9506">
        <ele>1021.493777</ele>
        <time>2022-03-06T17:56:57Z</time>
      </trkpt>
      <trkpt lat="45.79628" lon="2.95049">
        <ele>1020.441598</ele>
        <time>2022-03-06T17:57:20Z</time>
      </trkpt>
      <trkpt lat="45.79733" lon="2.95027">
        <ele>1015.243757</ele>
        <time>2022-03-06T17:59:17Z</time>
      </trkpt>
      <trkpt lat="45.79807" lon="2.95021">
        <ele>1012.945307</ele>
        <time>2022-03-06T18:00:35Z</time>
      </trkpt>
      <trkpt lat="45.79819" lon="2.95023">
        <ele>1012.622319</ele>
        <time>2022-03-06T18:00:48Z</time>
      </trkpt>
      <trkpt lat="45.79846" lon="2.9499">
        <ele>1011.73436</ele>
        <time>2022-03-06T18:01:24Z</time>
      </trkpt>
      <trkpt lat="45.79902" lon="2.9499">
        <ele>1010.307359</ele>
        <time>2022-03-06T18:02:24Z</time>
      </trkpt>
      <trkpt lat="45.79924" lon="2.95032">
        <ele>1008.958456</ele>
        <time>2022-03-06T18:03:03Z</time>
      </trkpt>
      <trkpt lat="45.79976" lon="2.95079">
        <ele>1005.994705</ele>
        <time>2022-03-06T18:04:06Z</time>
      </trkpt>
      <trkpt lat="45.80071" lon="2.95088">
        <ele>1001.334602</ele>
        <time>2022-03-06T18:05:54Z</time>
      </trkpt>
      <trkpt lat="45.80095" lon="2.95129">
        <ele>998.387185</ele>
        <time>2022-03-06T18:06:37Z</time>
      </trkpt>
      <trkpt lat="45.80252" lon="2.95168">
        <ele>984.737715</ele>
        <time>2022-03-06T18:09:45Z</time>
      </trkpt>
      <trkpt lat="45.80278" lon="2.95163">
        <ele>982.702108</ele>
        <time>2022-03-06T18:10:16Z</time>
      </trkpt>
      <trkpt lat="45.80342" lon="2.95113">
        <ele>976.96516</ele>
        <time>2022-03-06T18:11:40Z</time>
      </trkpt>
      <trkpt lat="45.80353" lon="2.95083">
        <ele>975.076795</ele>
        <time>2022-03-06T18:12:08Z</time>
      </trkpt>
      <trkpt lat="45.80361" lon="2.95072">
        <ele>974.196227</ele>
        <time>2022-03-06T18:12:21Z</time>
      </trkpt>
      <trkpt lat="45.80432" lon="2.95038">
        <ele>969.463392</ele>
        <time>2022-03-06T18:13:45Z</time>
      </trkpt>
      <trkpt lat="45.80476" lon="2.95023">
        <ele>967.292922</ele>
        <time>2022-03-06T18:14:35Z</time>
      </trkpt>
      <trkpt lat="45.80512" lon="2.94996">
        <ele>965.35025</ele>
        <time>2022-03-06T18:15:20Z</time>
      </trkpt>
      <trkpt lat="45.80524" lon="2.94995">
        <ele>964.761493</ele>
        <time>2022-03-06T18:15:33Z</time>
      </trkpt>
      <trkpt lat="45.8057" lon="2.9501">
        <ele>962.683395</ele>
        <time>2022-03-06T18:16:24Z</time>
      </trkpt>
      <trkpt lat="45.80623" lon="2.95017">
        <ele>962.526438</ele>
        <time>2022-03-06T18:17:20Z</time>
      </trkpt>
      <trkpt lat="45.80678" lon="2.9504">
        <ele>962.360073</ele>
        <time>2022-03-06T18:18:18Z</time>
      </trkpt>
      <trkpt lat="45.8092" lon="2.95104">
        <ele>965.406512</ele>
        <time>2022-03-06T18:22:40Z</time>
      </trkpt>
      <trkpt lat="45.80956" lon="2.95107">
        <ele>965.714419</ele>
        <time>2022-03-06T18:23:19Z</time>
      </trkpt>
      <trkpt lat="45.81013" lon="2.95097">
        <ele>966.19037</ele>
        <time>2022-03-06T18:24:18Z</time>
      </trkpt>
      <trkpt lat="45.81075" lon="2.95082">
        <ele>966.72294</ele>
        <time>2022-03-06T18:25:22Z</time>
      </trkpt>
      <trkpt lat="45.81091" lon="2.95078">
        <ele>966.854897</ele>
        <time>2022-03-06T18:25:38Z</time>
      </trkpt>
      <trkpt lat="45.81166" lon="2.95078">
        <ele>966.779458</ele>
        <time>2022-03-06T18:26:54Z</time>
      </trkpt>
      <trkpt lat="45.81206" lon="2.95093">
        <ele>966.703708</ele>
        <time>2022-03-06T18:27:36Z</time>
      </trkpt>
      <trkpt lat="45.8129" lon="2.95179">
        <ele>965.700787</ele>
        <time>2022-03-06T18:29:21Z</time>
      </trkpt>
      <trkpt lat="45.81296" lon="2.95198">
        <ele>965.311098</ele>
        <time>2022-03-06T18:29:36Z</time>
      </trkpt>
      <trkpt lat="45.81313" lon="2.95194">
        <ele>964.86152</ele>
        <time>2022-03-06T18:29:54Z</time>
      </trkpt>
      <trkpt lat="45.81315" lon="2.95201">
        <ele>964.72079</ele>
        <time>2022-03-06T18:30:00Z</time>
      </trkpt>
      <trkpt lat="45.81321" lon="2.95221">
        <ele>964.323394</ele>
        <time>2022-03-06T18:30:15Z</time>
      </trkpt>
      <trkpt lat="45.81333" lon="2.95242">
        <ele>963.824429</ele>
        <time>2022-03-06T18:30:36Z</time>
      </trkpt>
      <trkpt lat="45.81349" lon="2.95253">
        <ele>963.358345</ele>
        <time>2022-03-06T18:30:55Z</time>
      </trkpt>
      <trkpt lat="45.81362" lon="2.95247">
        <ele>963.002943</ele>
        <time>2022-03-06T18:31:11Z</time>
      </trkpt>
      <trkpt lat="45.81388" lon="2.9526">
        <ele>962.27861</ele>
        <time>2022-03-06T18:31:40Z</time>
      </trkpt>
      <trkpt lat="45.81395" lon="2.9527">
        <ele>962.031429</ele>
        <time>2022-03-06T18:31:51Z</time>
      </trkpt>
      <trkpt lat="45.81401" lon="2.9529">
        <ele>961.723435</ele>
        <time>2022-03-06T18:32:06Z</time>
      </trkpt>
      <trkpt lat="45.81401" lon="2.9531">
        <ele>961.482307</ele>
        <time>2022-03-06T18:32:22Z</time>
      </trkpt>
      <trkpt lat="45.81439" lon="2.9532">
        <ele>960.81392</ele>
        <time>2022-03-06T18:33:03Z</time>
      </trkpt>
      <trkpt lat="45.81453" lon="2.95328">
        <ele>960.557818</ele>
        <time>2022-03-06T18:33:19Z</time>
      </trkpt>
      <trkpt lat="45.81465" lon="2.95347">
        <ele>960.253811</ele>
        <time>2022-03-06T18:33:37Z</time>
      </trkpt>
      <trkpt lat="45.81461" lon="2.95355">
        <ele>960.133304</ele>
        <time>2022-03-06T18:33:45Z</time>
      </trkpt>
      <trkpt lat="45.81409" lon="2.95541">
        <ele>959.67289</ele>
        <time>2022-03-06T18:36:05Z</time>
      </trkpt>
      <trkpt lat="45.81414" lon="2.95682">
        <ele>961.038555</ele>
        <time>2022-03-06T18:37:52Z</time>
      </trkpt>
      <trkpt lat="45.81429" lon="2.95819">
        <ele>961.704647</ele>
        <time>2022-03-06T18:39:34Z</time>
      </trkpt>
      <trkpt lat="45.81474" lon="2.95848">
        <ele>961.955826</ele>
        <time>2022-03-06T18:40:24Z</time>
      </trkpt>
      <trkpt lat="45.81764" lon="2.96031">
        <ele>961.301064</ele>
        <time>2022-03-06T18:45:47Z</time>
      </trkpt>
      <trkpt lat="45.81923" lon="2.96161">
        <ele>963.787531</ele>
        <time>2022-03-06T18:49:02Z</time>
      </trkpt>
      <trkpt lat="45.82" lon="2.96227">
        <ele>965.761832</ele>
        <time>2022-03-06T18:50:39Z</time>
      </trkpt>
      <trkpt lat="45.82094" lon="2.96263">
        <ele>969.003084</ele>
        <time>2022-03-06T18:52:27Z</time>
      </trkpt>
      <trkpt lat="45.8224" lon="2.96291">
        <ele>974.190706</ele>
        <time>2022-03-06T18:55:14Z</time>
      </trkpt>
      <trkpt lat="45.82275" lon="2.96305">
        <ele>975.548157</ele>
        <time>2022-03-06T18:55:57Z</time>
      </trkpt>
      <trkpt lat="45.82296" lon="2.9632">
        <ele>976.423813</ele>
        <time>2022-03-06T18:56:24Z</time>
      </trkpt>
      <trkpt lat="45.82457" lon="2.96317">
        <ele>981.519556</ele>
        <time>2022-03-06T18:59:20Z</time>
      </trkpt>
      <trkpt lat="45.82473" lon="2.96296">
        <ele>982.140308</ele>
        <time>2022-03-06T18:59:44Z</time>
      </trkpt>
      <trkpt lat="45.82473" lon="2.96279">
        <ele>982.467432</ele>
        <time>2022-03-06T18:59:57Z</time>
      </trkpt>
      <trkpt lat="45.82474" lon="2.96275">
        <ele>982.556896</ele>
        <time>2022-03-06T19:00:00Z</time>
      </trkpt>
      <trkpt lat="45.82476" lon="2.96221">
        <ele>983.615299</ele>
        <time>2022-03-06T19:00:40Z</time>
      </trkpt>
      <trkpt lat="45.82471" lon="2.96176">
        <ele>986.303846</ele>
        <time>2022-03-06T19:01:16Z</time>
      </trkpt>
      <trkpt lat="45.82444" lon="2.96137">
        <ele>989.805596</ele>
        <time>2022-03-06T19:02:01Z</time>
      </trkpt>
      <trkpt lat="45.82405" lon="2.96121">
        <ele>993.499239</ele>
        <time>2022-03-06T19:02:51Z</time>
      </trkpt>
      <trkpt lat="45.82392" lon="2.96109">
        <ele>994.919548</ele>
        <time>2022-03-06T19:03:13Z</time>
      </trkpt>
      <trkpt lat="45.82379" lon="2.96084">
        <ele>996.973472</ele>
        <time>2022-03-06T19:03:48Z</time>
      </trkpt>
      <trkpt lat="45.82382" lon="2.96066">
        <ele>998.165383</ele>
        <time>2022-03-06T19:04:09Z</time>
      </trkpt>
      <trkpt lat="45.82383" lon="2.96056">
        <ele>998.81859</ele>
        <time>2022-03-06T19:04:21Z</time>
      </trkpt>
      <trkpt lat="45.82455" lon="2.95997">
        <ele>1014.10787</ele>
        <time>2022-03-06T19:06:48Z</time>
      </trkpt>
      <trkpt lat="45.82477" lon="2.95945">
        <ele>1022.981502</ele>
        <time>2022-03-06T19:08:14Z</time>
      </trkpt>
      <trkpt lat="45.82489" lon="2.95895">
        <ele>1030.547246</ele>
        <time>2022-03-06T19:09:34Z</time>
      </trkpt>
      <trkpt lat="45.8252" lon="2.958">
        <ele>1046.277445</ele>
        <time>2022-03-06T19:12:24Z</time>
      </trkpt>
      <trkpt lat="45.82517" lon="2.95709">
        <ele>1060.191199</ele>
        <time>2022-03-06T19:14:41Z</time>
      </trkpt>
      <trkpt lat="45.82487" lon="2.95588">
        <ele>1078.24359</ele>
        <time>2022-03-06T19:17:38Z</time>
      </trkpt>
      <trkpt lat="45.82486" lon="2.95555">
        <ele>1080.422655</ele>
        <time>2022-03-06T19:18:19Z</time>
      </trkpt>
      <trkpt lat="45.8247" lon="2.95456">
        <ele>1087.204654</ele>
        <time>2022-03-06T19:19:56Z</time>
      </trkpt>
      <trkpt lat="45.82467" lon="2.95398">
        <ele>1091.044941</ele>
        <time>2022-03-06T19:20:44Z</time>
      </trkpt>
      <trkpt lat="45.8241" lon="2.95311">
        <ele>1093.64196</ele>
        <time>2022-03-06T19:22:08Z</time>
      </trkpt>
      <trkpt lat="45.8239" lon="2.9525">
        <ele>1093.154606</ele>
        <time>2022-03-06T19:22:57Z</time>
      </trkpt>
      <trkpt lat="45.82383" lon="2.95204">
        <ele>1092.81328</ele>
        <time>2022-03-06T19:23:33Z</time>
      </trkpt>
      <trkpt lat="45.82385" lon="2.95149">
        <ele>1092.411805</ele>
        <time>2022-03-06T19:24:13Z</time>
      </trkpt>
      <trkpt lat="45.82374" lon="2.95086">
        <ele>1092.465098</ele>
        <time>2022-03-06T19:24:58Z</time>
      </trkpt>
      <trkpt lat="45.82376" lon="2.95053">
        <ele>1092.580355</ele>
        <time>2022-03-06T19:25:21Z</time>
      </trkpt>
      <trkpt lat="45.82389" lon="2.95032">
        <ele>1092.677528</ele>
        <time>2022-03-06T19:25:41Z</time>
      </trkpt>
      <trkpt lat="45.82404" lon="2.95024">
        <ele>1092.760632</ele>
        <time>2022-03-06T19:25:58Z</time>
      </trkpt>
      <trkpt lat="45.82416" lon="2.95066">
        <ele>1092.918718</ele>
        <time>2022-03-06T19:26:31Z</time>
      </trkpt>
      <trkpt lat="45.82419" lon="2.95076">
        <ele>1092.958751</ele>
        <time>2022-03-06T19:26:41Z</time>
      </trkpt>
      <trkpt lat="45.82434" lon="2.95093">
        <ele>1093.054991</ele>
        <time>2022-03-06T19:27:00Z</time>
      </trkpt>
      <trkpt lat="45.82457" lon="2.95095">
        <ele>1093.172698</ele>
        <time>2022-03-06T19:27:25Z</time>
      </trkpt>
      <trkpt lat="45.82471" lon="2.95104">
        <ele>1092.836308</ele>
        <time>2022-03-06T19:27:40Z</time>
      </trkpt>
      <trkpt lat="45.82475" lon="2.95124">
        <ele>1092.285142</ele>
        <time>2022-03-06T19:27:55Z</time>
      </trkpt>
      <trkpt lat="45.82489" lon="2.95135">
        <ele>1091.679535</ele>
        <time>2022-03-06T19:28:11Z</time>
      </trkpt>
      <trkpt lat="45.82517" lon="2.95137">
        <ele>1090.638556</ele>
        <time>2022-03-06T19:28:39Z</time>
      </trkpt>
      <trkpt lat="45.82549" lon="2.95157">
        <ele>1089.312518</ele>
        <time>2022-03-06T19:29:15Z</time>
      </trkpt>
      <trkpt lat="45.82569" lon="2.95157">
        <ele>1088.531771</ele>
        <time>2022-03-06T19:29:38Z</time>
      </trkpt>
      <trkpt lat="45.82655" lon="2.95217">
        <ele>1082.257339</ele>
        <time>2022-03-06T19:31:30Z</time>
      </trkpt>
      <trkpt lat="45.82714" lon="2.95188">
        <ele>1075.562687</ele>
        <time>2022-03-06T19:32:44Z</time>
      </trkpt>
      <trkpt lat="45.82715" lon="2.95188">
        <ele>1075.491681</ele>
        <time>2022-03-06T19:32:47Z</time>
      </trkpt>
      <trkpt lat="45.82784" lon="2.95138">
        <ele>1067.201166</ele>
        <time>2022-03-06T19:34:22Z</time>
      </trkpt>
      <trkpt lat="45.82844" lon="2.9512">
        <ele>1060.735853</ele>
        <time>2022-03-06T19:35:39Z</time>
      </trkpt>
      <trkpt lat="45.82872" lon="2.95122">
        <ele>1057.698587</ele>
        <time>2022-03-06T19:36:15Z</time>
      </trkpt>
      <trkpt lat="45.82934" lon="2.95088">
        <ele>1050.682093</ele>
        <time>2022-03-06T19:37:34Z</time>
      </trkpt>
      <trkpt lat="45.82955" lon="2.95071">
        <ele>1048.179425</ele>
        <time>2022-03-06T19:38:01Z</time>
      </trkpt>
      <trkpt lat="45.8297" lon="2.95043">
        <ele>1047.323297</ele>
        <time>2022-03-06T19:38:30Z</time>
      </trkpt>
      <trkpt lat="45.82999" lon="2.9509">
        <ele>1046.006206</ele>
        <time>2022-03-06T19:39:18Z</time>
      </trkpt>
      <trkpt lat="45.8302" lon="2.9515">
        <ele>1044.587358</ele>
        <time>2022-03-06T19:40:08Z</time>
      </trkpt>
      <trkpt lat="45.83056" lon="2.95297">
        <ele>1042.235877</ele>
        <time>2022-03-06T19:42:00Z</time>
      </trkpt>
      <trkpt lat="45.8309" lon="2.95386">
        <ele>1041.663189</ele>
        <time>2022-03-06T19:43:12Z</time>
      </trkpt>
      <trkpt lat="45.83103" lon="2.9542">
        <ele>1041.448085</ele>
        <time>2022-03-06T19:43:40Z</time>
      </trkpt>
      <trkpt lat="45.83111" lon="2.95467">
        <ele>1041.177025</ele>
        <time>2022-03-06T19:44:15Z</time>
      </trkpt>
      <trkpt lat="45.83113" lon="2.95523">
        <ele>1040.469151</ele>
        <time>2022-03-06T19:44:57Z</time>
      </trkpt>
      <trkpt lat="45.83133" lon="2.9549">
        <ele>1039.851367</ele>
        <time>2022-03-06T19:45:30Z</time>
      </trkpt>
      <trkpt lat="45.83172" lon="2.95431">
        <ele>1038.726639</ele>
        <time>2022-03-06T19:46:31Z</time>
      </trkpt>
      <trkpt lat="45.83414" lon="2.95398">
        <ele>1038.660441</ele>
        <time>2022-03-06T19:50:38Z</time>
      </trkpt>
      <trkpt lat="45.83429" lon="2.95429">
        <ele>1039.116549</ele>
        <time>2022-03-06T19:51:07Z</time>
      </trkpt>
      <trkpt lat="45.8349" lon="2.95457">
        <ele>1040.200265</ele>
        <time>2022-03-06T19:52:16Z</time>
      </trkpt>
      <trkpt lat="45.83507" lon="2.95466">
        <ele>1040.509226</ele>
        <time>2022-03-06T19:52:36Z</time>
      </trkpt>
      <trkpt lat="45.83659" lon="2.95554">
        <ele>1041.558563</ele>
        <time>2022-03-06T19:55:27Z</time>
      </trkpt>
      <trkpt lat="45.83684" lon="2.956">
        <ele>1041.519401</ele>
        <time>2022-03-06T19:56:08Z</time>
      </trkpt>
      <trkpt lat="45.83662" lon="2.95637">
        <ele>1041.48661</ele>
        <time>2022-03-06T19:56:43Z</time>
      </trkpt>
      <trkpt lat="45.83554" lon="2.95874">
        <ele>1036.251965</ele>
        <time>2022-03-06T20:00:13Z</time>
      </trkpt>
      <trkpt lat="45.83629" lon="2.95918">
        <ele>1036.165462</ele>
        <time>2022-03-06T20:01:36Z</time>
      </trkpt>
      <trkpt lat="45.83638" lon="2.95918">
        <ele>1036.155758</ele>
        <time>2022-03-06T20:01:46Z</time>
      </trkpt>
      <trkpt lat="45.83668" lon="2.95955">
        <ele>1036.113011</ele>
        <time>2022-03-06T20:02:27Z</time>
      </trkpt>
      <trkpt lat="45.83684" lon="2.95981">
        <ele>1036.087356</ele>
        <time>2022-03-06T20:02:53Z</time>
      </trkpt>
      <trkpt lat="45.83716" lon="2.96014">
        <ele>1037.802215</ele>
        <time>2022-03-06T20:03:37Z</time>
      </trkpt>
      <trkpt lat="45.83731" lon="2.96056">
        <ele>1040.450415</ele>
        <time>2022-03-06T20:04:15Z</time>
      </trkpt>
      <trkpt lat="45.83735" lon="2.96156">
        <ele>1046.144539</ele>
        <time>2022-03-06T20:05:44Z</time>
      </trkpt>
      <trkpt lat="45.83743" lon="2.962">
        <ele>1048.719385</ele>
        <time>2022-03-06T20:06:28Z</time>
      </trkpt>
      <trkpt lat="45.8377" lon="2.9622">
        <ele>1051.632393</ele>
        <time>2022-03-06T20:07:14Z</time>
      </trkpt>
      <trkpt lat="45.8385" lon="2.96232">
        <ele>1063.673946</ele>
        <time>2022-03-06T20:09:22Z</time>
      </trkpt>
      <trkpt lat="45.83939" lon="2.96205">
        <ele>1077.410919</ele>
        <time>2022-03-06T20:11:58Z</time>
      </trkpt>
      <trkpt lat="45.8407" lon="2.9625">
        <ele>1098.770843</ele>
        <time>2022-03-06T20:15:57Z</time>
      </trkpt>
      <trkpt lat="45.84132" lon="2.96323">
        <ele>1109.803993</ele>
        <time>2022-03-06T20:18:01Z</time>
      </trkpt>
      <trkpt lat="45.84194" lon="2.96366">
        <ele>1117.150705</ele>
        <time>2022-03-06T20:19:39Z</time>
      </trkpt>
      <trkpt lat="45.84294" lon="2.96491">
        <ele>1127.745637</ele>
        <time>2022-03-06T20:22:28Z</time>
      </trkpt>
      <trkpt lat="45.84353" lon="2.96515">
        <ele>1130.306152</ele>
        <time>2022-03-06T20:23:37Z</time>
      </trkpt>
      <trkpt lat="45.84391" lon="2.96507">
        <ele>1131.905922</ele>
        <time>2022-03-06T20:24:18Z</time>
      </trkpt>
      <trkpt lat="45.84389" lon="2.96461">
        <ele>1132.981519</ele>
        <time>2022-03-06T20:24:52Z</time>
      </trkpt>
      <trkpt lat="45.84439" lon="2.96437">
        <ele>1133.176289</ele>
        <time>2022-03-06T20:25:44Z</time>
      </trkpt>
      <trkpt lat="45.84484" lon="2.96516">
        <ele>1133.444989</ele>
        <time>2022-03-06T20:26:56Z</time>
      </trkpt>
      <trkpt lat="45.84526" lon="2.96522">
        <ele>1133.601294</ele>
        <time>2022-03-06T20:27:37Z</time>
      </trkpt>
      <trkpt lat="45.84549" lon="2.96568">
        <ele>1133.882322</ele>
        <time>2022-03-06T20:28:18Z</time>
      </trkpt>
      <trkpt lat="45.84582" lon="2.96584">
        <ele>1134.168288</ele>
        <time>2022-03-06T20:28:55Z</time>
      </trkpt>
      <trkpt lat="45.8461" lon="2.96645">
        <ele>1134.579147</ele>
        <time>2022-03-06T20:29:47Z</time>
      </trkpt>
      <trkpt lat="45.84659" lon="2.96665">
        <ele>1134.996818</ele>
        <time>2022-03-06T20:30:41Z</time>
      </trkpt>
      <trkpt lat="45.84705" lon="2.96814">
        <ele>1134.363624</ele>
        <time>2022-03-06T20:32:36Z</time>
      </trkpt>
      <trkpt lat="45.84792" lon="2.96886">
        <ele>1132.283813</ele>
        <time>2022-03-06T20:34:21Z</time>
      </trkpt>
      <trkpt lat="45.84834" lon="2.96889">
        <ele>1129.313155</ele>
        <time>2022-03-06T20:35:08Z</time>
      </trkpt>
      <trkpt lat="45.84868" lon="2.96859">
        <ele>1126.528759</ele>
        <time>2022-03-06T20:35:54Z</time>
      </trkpt>
      <trkpt lat="45.84898" lon="2.968">
        <ele>1122.998764</ele>
        <time>2022-03-06T20:36:54Z</time>
      </trkpt>
      <trkpt lat="45.84911" lon="2.96756">
        <ele>1120.141168</ele>
        <time>2022-03-06T20:37:34Z</time>
      </trkpt>
      <trkpt lat="45.8502" lon="2.96694">
        <ele>1104.867055</ele>
        <time>2022-03-06T20:39:56Z</time>
      </trkpt>
      <trkpt lat="45.85103" lon="2.96587">
        <ele>1086.45198</ele>
        <time>2022-03-06T20:42:28Z</time>
      </trkpt>
      <trkpt lat="45.85164" lon="2.96404">
        <ele>1059.230131</ele>
        <time>2022-03-06T20:45:57Z</time>
      </trkpt>
      <trkpt lat="45.85217" lon="2.96476">
        <ele>1047.182584</ele>
        <time>2022-03-06T20:47:48Z</time>
      </trkpt>
      <trkpt lat="45.85265" lon="2.96604">
        <ele>1031.696015</ele>
        <time>2022-03-06T20:49:54Z</time>
      </trkpt>
      <trkpt lat="45.85294" lon="2.9666">
        <ele>1028.010467</ele>
        <time>2022-03-06T20:50:50Z</time>
      </trkpt>
      <trkpt lat="45.85241" lon="2.9683">
        <ele>1018.356834</ele>
        <time>2022-03-06T20:53:18Z</time>
      </trkpt>
      <trkpt lat="45.85248" lon="2.9691">
        <ele>1015.036744</ele>
        <time>2022-03-06T20:54:19Z</time>
      </trkpt>
      <trkpt lat="45.85243" lon="2.97025">
        <ele>1010.227602</ele>
        <time>2022-03-06T20:55:48Z</time>
      </trkpt>
      <trkpt lat="45.85191" lon="2.97181">
        <ele>997.82997</ele>
        <time>2022-03-06T20:58:08Z</time>
      </trkpt>
      <trkpt lat="45.85086" lon="2.9734">
        <ele>975.872923</ele>
        <time>2022-03-06T21:01:26Z</time>
      </trkpt>
      <trkpt lat="45.85094" lon="2.97354">
        <ele>973.582852</ele>
        <time>2022-03-06T21:01:47Z</time>
      </trkpt>
      <trkpt lat="45.85129" lon="2.97381">
        <ele>966.323043</ele>
        <time>2022-03-06T21:02:45Z</time>
      </trkpt>
      <trkpt lat="45.8522" lon="2.9754">
        <ele>943.597134</ele>
        <time>2022-03-06T21:06:04Z</time>
      </trkpt>
      <trkpt lat="45.85251" lon="2.97598">
        <ele>936.471034</ele>
        <time>2022-03-06T21:07:08Z</time>
      </trkpt>
      <trkpt lat="45.85346" lon="2.9773">
        <ele>924.060687</ele>
        <time>2022-03-06T21:09:41Z</time>
      </trkpt>
      <trkpt lat="45.85383" lon="2.97806">
        <ele>919.847514</ele>
        <time>2022-03-06T21:10:52Z</time>
      </trkpt>
      <trkpt lat="45.85432" lon="2.97814">
        <ele>916.527486</ele>
        <time>2022-03-06T21:11:46Z</time>
      </trkpt>
      <trkpt lat="45.85463" lon="2.97832">
        <ele>914.088041</ele>
        <time>2022-03-06T21:12:24Z</time>
      </trkpt>
      <trkpt lat="45.85549" lon="2.97889">
        <ele>907.272141</ele>
        <time>2022-03-06T21:14:14Z</time>
      </trkpt>
      <trkpt lat="45.85636" lon="2.97972">
        <ele>903.019202</ele>
        <time>2022-03-06T21:16:17Z</time>
      </trkpt>
      <trkpt lat="45.85667" lon="2.98056">
        <ele>901.37871</ele>
        <time>2022-03-06T21:17:25Z</time>
      </trkpt>
      <trkpt lat="45.85701" lon="2.98063">
        <ele>900.518537</ele>
        <time>2022-03-06T21:18:03Z</time>
      </trkpt>
      <trkpt lat="45.85721" lon="2.98029">
        <ele>901.987451</ele>
        <time>2022-03-06T21:18:40Z</time>
      </trkpt>
      <trkpt lat="45.85736" lon="2.98017">
        <ele>903.407204</ele>
        <time>2022-03-06T21:19:01Z</time>
      </trkpt>
      <trkpt lat="45.85795" lon="2.98031">
        <ele>908.395984</ele>
        <time>2022-03-06T21:20:18Z</time>
      </trkpt>
      <trkpt lat="45.85835" lon="2.98055">
        <ele>911.954919</ele>
        <time>2022-03-06T21:21:15Z</time>
      </trkpt>
      <trkpt lat="45.85872" lon="2.981">
        <ele>916.023113</ele>
        <time>2022-03-06T21:22:23Z</time>
      </trkpt>
      <trkpt lat="45.85873" lon="2.98114">
        <ele>916.858977</ele>
        <time>2022-03-06T21:22:37Z</time>
      </trkpt>
      <trkpt lat="45.85856" lon="2.9816">
        <ele>919.952055</ele>
        <time>2022-03-06T21:23:25Z</time>
      </trkpt>
      <trkpt lat="45.85811" lon="2.98224">
        <ele>925.383561</ele>
        <time>2022-03-06T21:24:46Z</time>
      </trkpt>
      <trkpt lat="45.85799" lon="2.98279">
        <ele>928.829064</ele>
        <time>2022-03-06T21:25:37Z</time>
      </trkpt>
      <trkpt lat="45.85809" lon="2.98337">
        <ele>931.83146</ele>
        <time>2022-03-06T21:26:28Z</time>
      </trkpt>
      <trkpt lat="45.85861" lon="2.9841">
        <ele>936.162284</ele>
        <time>2022-03-06T21:27:58Z</time>
      </trkpt>
      <trkpt lat="45.85861" lon="2.98426">
        <ele>936.840435</ele>
        <time>2022-03-06T21:28:12Z</time>
      </trkpt>
      <trkpt lat="45.85872" lon="2.98478">
        <ele>939.067542</ele>
        <time>2022-03-06T21:28:56Z</time>
      </trkpt>
      <trkpt lat="45.859" lon="2.9856">
        <ele>941.682139</ele>
        <time>2022-03-06T21:30:11Z</time>
      </trkpt>
      <trkpt lat="45.85908" lon="2.98617">
        <ele>942.294159</ele>
        <time>2022-03-06T21:30:54Z</time>
      </trkpt>
      <trkpt lat="45.85906" lon="2.98705">
        <ele>943.226525</ele>
        <time>2022-03-06T21:31:56Z</time>
      </trkpt>
      <trkpt lat="45.85924" lon="2.98723">
        <ele>943.552218</ele>
        <time>2022-03-06T21:32:18Z</time>
      </trkpt>
      <trkpt lat="45.85931" lon="2.98725">
        <ele>943.663752</ele>
        <time>2022-03-06T21:32:25Z</time>
      </trkpt>
      <trkpt lat="45.85956" lon="2.98735">
        <ele>943.973738</ele>
        <time>2022-03-06T21:32:52Z</time>
      </trkpt>
      <trkpt lat="45.85999" lon="2.98707">
        <ele>943.483387</ele>
        <time>2022-03-06T21:33:39Z</time>
      </trkpt>
      <trkpt lat="45.86019" lon="2.98664">
        <ele>943.110774</ele>
        <time>2022-03-06T21:34:16Z</time>
      </trkpt>
      <trkpt lat="45.8601" lon="2.98577">
        <ele>942.47971</ele>
        <time>2022-03-06T21:35:18Z</time>
      </trkpt>
      <trkpt lat="45.86017" lon="2.98562">
        <ele>942.346202</ele>
        <time>2022-03-06T21:35:32Z</time>
      </trkpt>
      <trkpt lat="45.86048" lon="2.98544">
        <ele>941.311241</ele>
        <time>2022-03-06T21:36:07Z</time>
      </trkpt>
      <trkpt lat="45.86101" lon="2.9855">
        <ele>937.995395</ele>
        <time>2022-03-06T21:37:03Z</time>
      </trkpt>
      <trkpt lat="45.86141" lon="2.98569">
        <ele>935.394505</ele>
        <time>2022-03-06T21:37:50Z</time>
      </trkpt>
      <trkpt lat="45.86162" lon="2.98582">
        <ele>934.019895</ele>
        <time>2022-03-06T21:38:16Z</time>
      </trkpt>
      <trkpt lat="45.86184" lon="2.98607">
        <ele>932.260789</ele>
        <time>2022-03-06T21:38:50Z</time>
      </trkpt>
      <trkpt lat="45.86195" lon="2.98627">
        <ele>931.150648</ele>
        <time>2022-03-06T21:39:11Z</time>
      </trkpt>
      <trkpt lat="45.86228" lon="2.98649">
        <ele>925.514335</ele>
        <time>2022-03-06T21:39:55Z</time>
      </trkpt>
      <trkpt lat="45.86247" lon="2.98655">
        <ele>922.238268</ele>
        <time>2022-03-06T21:40:20Z</time>
      </trkpt>
      <trkpt lat="45.86274" lon="2.98664">
        <ele>917.724787</ele>
        <time>2022-03-06T21:40:58Z</time>
      </trkpt>
      <trkpt lat="45.86339" lon="2.98671">
        <ele>907.081468</ele>
        <time>2022-03-06T21:42:26Z</time>
      </trkpt>
      <trkpt lat="45.86351" lon="2.98668">
        <ele>905.239129</ele>
        <time>2022-03-06T21:42:41Z</time>
      </trkpt>
      <trkpt lat="45.8638" lon="2.98644">
        <ele>899.450115</ele>
        <time>2022-03-06T21:43:33Z</time>
      </trkpt>
      <trkpt lat="45.86411" lon="2.98642">
        <ele>894.004359</ele>
        <time>2022-03-06T21:44:21Z</time>
      </trkpt>
      <trkpt lat="45.8645" lon="2.98623">
        <ele>886.769876</ele>
        <time>2022-03-06T21:45:17Z</time>
      </trkpt>
      <trkpt lat="45.86604" lon="2.98665">
        <ele>861.352446</ele>
        <time>2022-03-06T21:48:42Z</time>
      </trkpt>
      <trkpt lat="45.86621" lon="2.98662">
        <ele>858.961703</ele>
        <time>2022-03-06T21:49:04Z</time>
      </trkpt>
      <trkpt lat="45.86672" lon="2.98578">
        <ele>848.267649</ele>
        <time>2022-03-06T21:50:42Z</time>
      </trkpt>
      <trkpt lat="45.86734" lon="2.98504">
        <ele>839.296694</ele>
        <time>2022-03-06T21:52:19Z</time>
      </trkpt>
      <trkpt lat="45.86747" lon="2.98482">
        <ele>837.276086</ele>
        <time>2022-03-06T21:52:43Z</time>
      </trkpt>
      <trkpt lat="45.86763" lon="2.9843">
        <ele>833.260827</ele>
        <time>2022-03-06T21:53:32Z</time>
      </trkpt>
      <trkpt lat="45.868" lon="2.98361">
        <ele>827.087297</ele>
        <time>2022-03-06T21:54:43Z</time>
      </trkpt>
      <trkpt lat="45.86824" lon="2.98339">
        <ele>825.579466</ele>
        <time>2022-03-06T21:55:16Z</time>
      </trkpt>
      <trkpt lat="45.86858" lon="2.98316">
        <ele>823.741637</ele>
        <time>2022-03-06T21:55:58Z</time>
      </trkpt>
      <trkpt lat="45.86868" lon="2.98313">
        <ele>823.21975</ele>
        <time>2022-03-06T21:56:10Z</time>
      </trkpt>
      <trkpt lat="45.86932" lon="2.9825">
        <ele>819.434348</ele>
        <time>2022-03-06T21:57:34Z</time>
      </trkpt>
      <trkpt lat="45.87114" lon="2.9818">
        <ele>815.241692</ele>
        <time>2022-03-06T22:00:48Z</time>
      </trkpt>
      <trkpt lat="45.87126" lon="2.98163">
        <ele>814.946077</ele>
        <time>2022-03-06T22:01:05Z</time>
      </trkpt>
      <trkpt lat="45.87127" lon="2.98158">
        <ele>814.868112</ele>
        <time>2022-03-06T22:01:10Z</time>
      </trkpt>
      <trkpt lat="45.87131" lon="2.98145">
        <ele>814.554982</ele>
        <time>2022-03-06T22:01:19Z</time>
      </trkpt>
      <trkpt lat="45.87128" lon="2.981">
        <ele>813.507169</ele>
        <time>2022-03-06T22:01:52Z</time>
      </trkpt>
      <trkpt lat="45.87153" lon="2.98114">
        <ele>812.62258</ele>
        <time>2022-03-06T22:02:21Z</time>
      </trkpt>
      <trkpt lat="45.872" lon="2.982">
        <ele>810.126958</ele>
        <time>2022-03-06T22:03:42Z</time>
      </trkpt>
      <trkpt lat="45.87225" lon="2.98319">
        <ele>806.382856</ele>
        <time>2022-03-06T22:05:17Z</time>
      </trkpt>
      <trkpt lat="45.87223" lon="2.98406">
        <ele>803.368317</ele>
        <time>2022-03-06T22:06:24Z</time>
      </trkpt>
      <trkpt lat="45.87254" lon="2.98449">
        <ele>801.216999</ele>
        <time>2022-03-06T22:07:12Z</time>
      </trkpt>
      <trkpt lat="45.87246" lon="2.98512">
        <ele>799.164955</ele>
        <time>2022-03-06T22:08:02Z</time>
      </trkpt>
      <trkpt lat="45.8729" lon="2.98567">
        <ele>796.804831</ele>
        <time>2022-03-06T22:09:05Z</time>
      </trkpt>
      <trkpt lat="45.87269" lon="2.98633">
        <ele>794.769409</ele>
        <time>2022-03-06T22:10:00Z</time>
      </trkpt>
      <trkpt lat="45.87265" lon="2.98707">
        <ele>792.708111</ele>
        <time>2022-03-06T22:10:56Z</time>
      </trkpt>
      <trkpt lat="45.87268" lon="2.98763">
        <ele>791.812313</ele>
        <time>2022-03-06T22:11:38Z</time>
      </trkpt>
      <trkpt lat="45.8726" lon="2.98937">
        <ele>789.043296</ele>
        <time>2022-03-06T22:13:44Z</time>
      </trkpt>
      <trkpt lat="45.87269" lon="2.99001">
        <ele>788.188559</ele>
        <time>2022-03-06T22:14:30Z</time>
      </trkpt>
      <trkpt lat="45.87265" lon="2.99037">
        <ele>787.781899</ele>
        <time>2022-03-06T22:14:57Z</time>
      </trkpt>
      <trkpt lat="45.8723" lon="2.99007">
        <ele>787.143573</ele>
        <time>2022-03-06T22:15:38Z</time>
      </trkpt>
      <trkpt lat="45.87229" lon="2.99006">
        <ele>787.117855</ele>
        <time>2022-03-06T22:15:40Z</time>
      </trkpt>
      <trkpt lat="45.87222" lon="2.99007">
        <ele>787.004019</ele>
        <time>2022-03-06T22:15:48Z</time>
      </trkpt>
      <trkpt lat="45.87152" lon="2.9907">
        <ele>785.592464</ele>
        <time>2022-03-06T22:17:14Z</time>
      </trkpt>
      <trkpt lat="45.87121" lon="2.99121">
        <ele>783.556123</ele>
        <time>2022-03-06T22:18:04Z</time>
      </trkpt>
      <trkpt lat="45.87112" lon="2.9916">
        <ele>782.320484</ele>
        <time>2022-03-06T22:18:35Z</time>
      </trkpt>
      <trkpt lat="45.87113" lon="2.99178">
        <ele>781.770554</ele>
        <time>2022-03-06T22:18:49Z</time>
      </trkpt>
      <trkpt lat="45.87131" lon="2.99226">
        <ele>780.160212</ele>
        <time>2022-03-06T22:19:30Z</time>
      </trkpt>
      <trkpt lat="45.87152" lon="2.99254">
        <ele>778.899502</ele>
        <time>2022-03-06T22:20:02Z</time>
      </trkpt>
      <trkpt lat="45.87157" lon="2.99283">
        <ele>778.011123</ele>
        <time>2022-03-06T22:20:25Z</time>
      </trkpt>
      <trkpt lat="45.87166" lon="2.99326">
        <ele>775.704648</ele>
        <time>2022-03-06T22:21:00Z</time>
      </trkpt>
      <trkpt lat="45.87164" lon="2.99342">
        <ele>774.847906</ele>
        <time>2022-03-06T22:21:13Z</time>
      </trkpt>
      <trkpt lat="45.87148" lon="2.99369">
        <ele>773.035933</ele>
        <time>2022-03-06T22:21:41Z</time>
      </trkpt>
      <trkpt lat="45.87118" lon="2.994">
        <ele>770.24149</ele>
        <time>2022-03-06T22:22:25Z</time>
      </trkpt>
      <trkpt lat="45.87072" lon="2.99421">
        <ele>766.657362</ele>
        <time>2022-03-06T22:23:21Z</time>
      </trkpt>
      <trkpt lat="45.87084" lon="2.99432">
        <ele>765.585146</ele>
        <time>2022-03-06T22:23:37Z</time>
      </trkpt>
      <trkpt lat="45.87088" lon="2.99444">
        <ele>764.92158</ele>
        <time>2022-03-06T22:23:48Z</time>
      </trkpt>
      <trkpt lat="45.87084" lon="2.99522">
        <ele>760.241237</ele>
        <time>2022-03-06T22:24:51Z</time>
      </trkpt>
      <trkpt lat="45.8708" lon="2.9956">
        <ele>757.891984</ele>
        <time>2022-03-06T22:25:23Z</time>
      </trkpt>
      <trkpt lat="45.87083" lon="2.99641">
        <ele>752.984854</ele>
        <time>2022-03-06T22:26:29Z</time>
      </trkpt>
      <trkpt lat="45.87079" lon="2.99817">
        <ele>742.647301</ele>
        <time>2022-03-06T22:28:54Z</time>
      </trkpt>
      <trkpt lat="45.87078" lon="2.99846">
        <ele>740.997093</ele>
        <time>2022-03-06T22:29:17Z</time>
      </trkpt>
      <trkpt lat="45.87088" lon="3.00056">
        <ele>729.716362</ele>
        <time>2022-03-06T22:32:06Z</time>
      </trkpt>
      <trkpt lat="45.87082" lon="3.00125">
        <ele>726.288651</ele>
        <time>2022-03-06T22:33:02Z</time>
      </trkpt>
      <trkpt lat="45.87086" lon="3.00331">
        <ele>716.71176</ele>
        <time>2022-03-06T22:35:43Z</time>
      </trkpt>
      <trkpt lat="45.87097" lon="3.00519">
        <ele>708.0874</ele>
        <time>2022-03-06T22:38:12Z</time>
      </trkpt>
      <trkpt lat="45.87092" lon="3.00554">
        <ele>706.315852</ele>
        <time>2022-03-06T22:38:40Z</time>
      </trkpt>
      <trkpt lat="45.87081" lon="3.0058">
        <ele>704.826477</ele>
        <time>2022-03-06T22:39:04Z</time>
      </trkpt>
      <trkpt lat="45.87057" lon="3.006">
        <ele>702.873244</ele>
        <time>2022-03-06T22:39:36Z</time>
      </trkpt>
      <trkpt lat="45.87043" lon="3.00621">
        <ele>701.434527</ele>
        <time>2022-03-06T22:40:00Z</time>
      </trkpt>
      <trkpt lat="45.87046" lon="3.00732">
        <ele>695.925679</ele>
        <time>2022-03-06T22:41:28Z</time>
      </trkpt>
      <trkpt lat="45.87057" lon="3.0076">
        <ele>694.220402</ele>
        <time>2022-03-06T22:41:54Z</time>
      </trkpt>
      <trkpt lat="45.87089" lon="3.00767">
        <ele>691.784043</ele>
        <time>2022-03-06T22:42:30Z</time>
      </trkpt>
      <trkpt lat="45.87107" lon="3.00769">
        <ele>690.42025</ele>
        <time>2022-03-06T22:42:51Z</time>
      </trkpt>
      <trkpt lat="45.87121" lon="3.0079">
        <ele>688.866551</ele>
        <time>2022-03-06T22:43:15Z</time>
      </trkpt>
      <trkpt lat="45.87137" lon="3.00874">
        <ele>684.319674</ele>
        <time>2022-03-06T22:44:25Z</time>
      </trkpt>
      <trkpt lat="45.87159" lon="3.01074">
        <ele>674.01247</ele>
        <time>2022-03-06T22:47:08Z</time>
      </trkpt>
      <trkpt lat="45.87171" lon="3.01124">
        <ele>671.304263</ele>
        <time>2022-03-06T22:47:50Z</time>
      </trkpt>
      <trkpt lat="45.87198" lon="3.01186">
        <ele>668.428994</ele>
        <time>2022-03-06T22:48:47Z</time>
      </trkpt>
      <trkpt lat="45.87208" lon="3.01238">
        <ele>666.412483</ele>
        <time>2022-03-06T22:49:29Z</time>
      </trkpt>
      <trkpt lat="45.87212" lon="3.01321">
        <ele>663.343779</ele>
        <time>2022-03-06T22:50:32Z</time>
      </trkpt>
      <trkpt lat="45.8724" lon="3.0142">
        <ele>659.270651</ele>
        <time>2022-03-06T22:51:54Z</time>
      </trkpt>
      <trkpt lat="45.8724" lon="3.01512">
        <ele>655.697587</ele>
        <time>2022-03-06T22:53:04Z</time>
      </trkpt>
      <trkpt lat="45.87228" lon="3.01559">
        <ele>653.753616</ele>
        <time>2022-03-06T22:53:43Z</time>
      </trkpt>
      <trkpt lat="45.87213" lon="3.01608">
        <ele>651.639739</ele>
        <time>2022-03-06T22:54:26Z</time>
      </trkpt>
      <trkpt lat="45.87185" lon="3.01626">
        <ele>649.65892</ele>
        <time>2022-03-06T22:55:00Z</time>
      </trkpt>
      <trkpt lat="45.87169" lon="3.01647">
        <ele>648.044094</ele>
        <time>2022-03-06T22:55:25Z</time>
      </trkpt>
      <trkpt lat="45.87143" lon="3.01716">
        <ele>644.031639</ele>
        <time>2022-03-06T22:56:28Z</time>
      </trkpt>
      <trkpt lat="45.87124" lon="3.01762">
        <ele>641.279354</ele>
        <time>2022-03-06T22:57:12Z</time>
      </trkpt>
      <trkpt lat="45.8712" lon="3.01833">
        <ele>637.670759</ele>
        <time>2022-03-06T22:58:08Z</time>
      </trkpt>
      <trkpt lat="45.87123" lon="3.0189">
        <ele>635.216774</ele>
        <time>2022-03-06T22:58:54Z</time>
      </trkpt>
      <trkpt lat="45.87176" lon="3.01994">
        <ele>629.699054</ele>
        <time>2022-03-06T23:00:34Z</time>
      </trkpt>
      <trkpt lat="45.87208" lon="3.02004">
        <ele>627.720162</ele>
        <time>2022-03-06T23:01:10Z</time>
      </trkpt>
      <trkpt lat="45.87213" lon="3.0202">
        <ele>626.978877</ele>
        <time>2022-03-06T23:01:23Z</time>
      </trkpt>
      <trkpt lat="45.87243" lon="3.02293">
        <ele>615.503579</ele>
        <time>2022-03-06T23:04:58Z</time>
      </trkpt>
      <trkpt lat="45.87239" lon="3.0232">
        <ele>613.934795</ele>
        <time>2022-03-06T23:05:21Z</time>
      </trkpt>
      <trkpt lat="45.87217" lon="3.02365">
        <ele>610.917504</ele>
        <time>2022-03-06T23:06:04Z</time>
      </trkpt>
      <trkpt lat="45.87157" lon="3.02446">
        <ele>604.295929</ele>
        <time>2022-03-06T23:07:39Z</time>
      </trkpt>
      <trkpt lat="45.87147" lon="3.02503">
        <ele>600.732775</ele>
        <time>2022-03-06T23:08:29Z</time>
      </trkpt>
      <trkpt lat="45.87151" lon="3.02638">
        <ele>590.730407</ele>
        <time>2022-03-06T23:10:24Z</time>
      </trkpt>
      <trkpt lat="45.87139" lon="3.02678">
        <ele>587.542052</ele>
        <time>2022-03-06T23:11:00Z</time>
      </trkpt>
      <trkpt lat="45.87125" lon="3.0273">
        <ele>583.364894</ele>
        <time>2022-03-06T23:11:48Z</time>
      </trkpt>
      <trkpt lat="45.87116" lon="3.02761">
        <ele>581.335843</ele>
        <time>2022-03-06T23:12:15Z</time>
      </trkpt>
      <trkpt lat="45.87106" lon="3.02813">
        <ele>578.284423</ele>
        <time>2022-03-06T23:13:00Z</time>
      </trkpt>
      <trkpt lat="45.871" lon="3.02835">
        <ele>576.962078</ele>
        <time>2022-03-06T23:13:20Z</time>
      </trkpt>
      <trkpt lat="45.87093" lon="3.02864">
        <ele>575.250121</ele>
        <time>2022-03-06T23:13:45Z</time>
      </trkpt>
      <trkpt lat="45.87107" lon="3.02864">
        <ele>574.161917</ele>
        <time>2022-03-06T23:14:01Z</time>
      </trkpt>
      <trkpt lat="45.87095" lon="3.02888">
        <ele>572.531529</ele>
        <time>2022-03-06T23:14:24Z</time>
      </trkpt>
      <trkpt lat="45.87085" lon="3.02916">
        <ele>570.752772</ele>
        <time>2022-03-06T23:14:49Z</time>
      </trkpt>
      <trkpt lat="45.87079" lon="3.02918">
        <ele>570.238962</ele>
        <time>2022-03-06T23:14:56Z</time>
      </trkpt>
      <trkpt lat="45.8703" lon="3.03066">
        <ele>564.283628</ele>
        <time>2022-03-06T23:17:01Z</time>
      </trkpt>
      <trkpt lat="45.87023" lon="3.03096">
        <ele>563.330412</ele>
        <time>2022-03-06T23:17:25Z</time>
      </trkpt>
      <trkpt lat="45.87066" lon="3.03116">
        <ele>561.385344</ele>
        <time>2022-03-06T23:18:13Z</time>
      </trkpt>
      <trkpt lat="45.87077" lon="3.03121">
        <ele>560.897581</ele>
        <time>2022-03-06T23:18:25Z</time>
      </trkpt>
      <trkpt lat="45.87137" lon="3.03128">
        <ele>558.528285</ele>
        <time>2022-03-06T23:19:31Z</time>
      </trkpt>
      <trkpt lat="45.87158" lon="3.03139">
        <ele>557.707463</ele>
        <time>2022-03-06T23:19:54Z</time>
      </trkpt>
      <trkpt lat="45.8718" lon="3.03159">
        <ele>556.711395</ele>
        <time>2022-03-06T23:20:23Z</time>
      </trkpt>
      <trkpt lat="45.87186" lon="3.0317">
        <ele>556.344088</ele>
        <time>2022-03-06T23:20:33Z</time>
      </trkpt>
      <trkpt lat="45.8719" lon="3.0318">
        <ele>556.037336</ele>
        <time>2022-03-06T23:20:42Z</time>
      </trkpt>
      <trkpt lat="45.87195" lon="3.03188">
        <ele>555.752138</ele>
        <time>2022-03-06T23:20:50Z</time>
      </trkpt>
      <trkpt lat="45.87205" lon="3.0326">
        <ele>553.834391</ele>
        <time>2022-03-06T23:21:45Z</time>
      </trkpt>
      <trkpt lat="45.87203" lon="3.0328">
        <ele>553.465124</ele>
        <time>2022-03-06T23:22:00Z</time>
      </trkpt>
      <trkpt lat="45.87194" lon="3.03274">
        <ele>553.465124</ele>
        <time>2022-03-06T23:22:11Z</time>
      </trkpt>
      <trkpt lat="45.87183" lon="3.03277">
        <ele>553.465124</ele>
        <time>2022-03-06T23:22:23Z</time>
      </trkpt>
      <trkpt lat="45.87159" lon="3.03318">
        <ele>553.465124</ele>
        <time>2022-03-06T23:23:03Z</time>
      </trkpt>
      <trkpt lat="45.87154" lon="3.03362">
        <ele>553.465124</ele>
        <time>2022-03-06T23:23:36Z</time>
      </trkpt>
      <trkpt lat="45.87172" lon="3.03354">
        <ele>553.465124</ele>
        <time>2022-03-06T23:23:55Z</time>
      </trkpt>
      <trkpt lat="45.87213" lon="3.03396">
        <ele>563.902805</ele>
        <time>2022-03-05T14:43:43Z</time>
      </trkpt>
      <trkpt lat="45.87265" lon="3.03363">
        <ele>563.902805</ele>
        <time>2022-03-05T14:44:51Z</time>
      </trkpt>
      <trkpt lat="45.87271" lon="3.03387">
        <ele>563.902805</ele>
        <time>2022-03-05T14:45:12Z</time>
      </trkpt>
      <trkpt lat="45.87273" lon="3.03394">
        <ele>563.902805</ele>
        <time>2022-03-05T14:45:20Z</time>
      </trkpt>
      <trkpt lat="45.87284" lon="3.03394">
        <ele>564.017521</ele>
        <time>2022-03-05T14:45:35Z</time>
      </trkpt>
      <trkpt lat="45.87306" lon="3.03403">
        <ele>566.66322</ele>
        <time>2022-03-05T14:46:05Z</time>
      </trkpt>
      <trkpt lat="45.87325" lon="3.03437">
        <ele>570.170015</ele>
        <time>2022-03-05T14:46:46Z</time>
      </trkpt>
      <trkpt lat="45.87332" lon="3.03427">
        <ele>571.333398</ele>
        <time>2022-03-05T14:47:05Z</time>
      </trkpt>
      <trkpt lat="45.87345" lon="3.03427">
        <ele>572.805049</ele>
        <time>2022-03-05T14:47:22Z</time>
      </trkpt>
      <trkpt lat="45.87347" lon="3.03427">
        <ele>573.094787</ele>
        <time>2022-03-05T14:47:26Z</time>
      </trkpt>
      <trkpt lat="45.87365" lon="3.03439">
        <ele>575.33483</ele>
        <time>2022-03-05T14:47:57Z</time>
      </trkpt>
      <trkpt lat="45.87381" lon="3.03459">
        <ele>577.772787</ele>
        <time>2022-03-05T14:48:25Z</time>
      </trkpt>
      <trkpt lat="45.8741" lon="3.03467">
        <ele>581.195379</ele>
        <time>2022-03-05T14:49:10Z</time>
      </trkpt>
      <trkpt lat="45.87434" lon="3.03474">
        <ele>584.052152</ele>
        <time>2022-03-05T14:49:50Z</time>
      </trkpt>
      <trkpt lat="45.87526" lon="3.03531">
        <ele>593.878023</ele>
        <time>2022-03-05T14:52:09Z</time>
      </trkpt>
      <trkpt lat="45.87557" lon="3.03597">
        <ele>599.239704</ele>
        <time>2022-03-05T14:53:21Z</time>
      </trkpt>
      <trkpt lat="45.87601" lon="3.03658">
        <ele>603.422033</ele>
        <time>2022-03-05T14:54:34Z</time>
      </trkpt>
      <trkpt lat="45.87615" lon="3.03681">
        <ele>604.287025</ele>
        <time>2022-03-05T14:54:59Z</time>
      </trkpt>
      <trkpt lat="45.87653" lon="3.03699">
        <ele>605.929921</ele>
        <time>2022-03-05T14:55:46Z</time>
      </trkpt>
      <trkpt lat="45.87718" lon="3.03711">
        <ele>608.585549</ele>
        <time>2022-03-05T14:56:59Z</time>
      </trkpt>
      <trkpt lat="45.87726" lon="3.03716">
        <ele>608.934632</ele>
        <time>2022-03-05T14:57:09Z</time>
      </trkpt>
      <trkpt lat="45.87755" lon="3.03712">
        <ele>609.365541</ele>
        <time>2022-03-05T14:57:39Z</time>
      </trkpt>
      <trkpt lat="45.87774" lon="3.03699">
        <ele>609.222322</ele>
        <time>2022-03-05T14:58:02Z</time>
      </trkpt>
      <trkpt lat="45.8793" lon="3.03666">
        <ele>607.685847</ele>
        <time>2022-03-05T15:00:45Z</time>
      </trkpt>
      <trkpt lat="45.87967" lon="3.03669">
        <ele>606.269873</ele>
        <time>2022-03-05T15:01:25Z</time>
      </trkpt>
      <trkpt lat="45.87993" lon="3.03661">
        <ele>605.23649</ele>
        <time>2022-03-05T15:01:55Z</time>
      </trkpt>
      <trkpt lat="45.88063" lon="3.03653">
        <ele>602.550416</ele>
        <time>2022-03-05T15:03:11Z</time>
      </trkpt>
      <trkpt lat="45.88106" lon="3.03656">
        <ele>600.745205</ele>
        <time>2022-03-05T15:03:58Z</time>
      </trkpt>
      <trkpt lat="45.88185" lon="3.0364">
        <ele>596.791781</ele>
        <time>2022-03-05T15:05:25Z</time>
      </trkpt>
      <trkpt lat="45.88211" lon="3.03645">
        <ele>595.47537</ele>
        <time>2022-03-05T15:05:54Z</time>
      </trkpt>
      <trkpt lat="45.88225" lon="3.03647">
        <ele>594.777106</ele>
        <time>2022-03-05T15:06:10Z</time>
      </trkpt>
      <trkpt lat="45.88264" lon="3.03664">
        <ele>592.749973</ele>
        <time>2022-03-05T15:06:55Z</time>
      </trkpt>
      <trkpt lat="45.8829" lon="3.03685">
        <ele>591.928708</ele>
        <time>2022-03-05T15:07:28Z</time>
      </trkpt>
      <trkpt lat="45.8838" lon="3.03741">
        <ele>589.919416</ele>
        <time>2022-03-05T15:09:14Z</time>
      </trkpt>
      <trkpt lat="45.88413" lon="3.03754">
        <ele>589.210425</ele>
        <time>2022-03-05T15:09:50Z</time>
      </trkpt>
      <trkpt lat="45.88433" lon="3.03771">
        <ele>588.726116</ele>
        <time>2022-03-05T15:10:15Z</time>
      </trkpt>
      <trkpt lat="45.88452" lon="3.03793">
        <ele>590.575651</ele>
        <time>2022-03-05T15:10:43Z</time>
      </trkpt>
      <trkpt lat="45.88461" lon="3.03795">
        <ele>591.302437</ele>
        <time>2022-03-05T15:10:54Z</time>
      </trkpt>
      <trkpt lat="45.88476" lon="3.03769">
        <ele>593.183036</ele>
        <time>2022-03-05T15:11:21Z</time>
      </trkpt>
      <trkpt lat="45.88483" lon="3.03766">
        <ele>593.787037</ele>
        <time>2022-03-05T15:11:30Z</time>
      </trkpt>
      <trkpt lat="45.88431" lon="3.03697">
        <ele>599.563924</ele>
        <time>2022-03-05T15:13:02Z</time>
      </trkpt>
      <trkpt lat="45.88376" lon="3.0361">
        <ele>608.616184</ele>
        <time>2022-03-05T15:15:07Z</time>
      </trkpt>
      <trkpt lat="45.88371" lon="3.03585">
        <ele>611.254929</ele>
        <time>2022-03-05T15:15:35Z</time>
      </trkpt>
      <trkpt lat="45.88374" lon="3.03562">
        <ele>613.66486</ele>
        <time>2022-03-05T15:16:03Z</time>
      </trkpt>
      <trkpt lat="45.8841" lon="3.03508">
        <ele>621.341409</ele>
        <time>2022-03-05T15:17:27Z</time>
      </trkpt>
      <trkpt lat="45.88411" lon="3.03482">
        <ele>624.103493</ele>
        <time>2022-03-05T15:18:00Z</time>
      </trkpt>
      <trkpt lat="45.88397" lon="3.03421">
        <ele>630.673371</ele>
        <time>2022-03-05T15:19:16Z</time>
      </trkpt>
      <trkpt lat="45.88327" lon="3.03299">
        <ele>645.784178</ele>
        <time>2022-03-05T15:22:20Z</time>
      </trkpt>
      <trkpt lat="45.88288" lon="3.03211">
        <ele>655.262903</ele>
        <time>2022-03-05T15:24:01Z</time>
      </trkpt>
      <trkpt lat="45.88239" lon="3.0314">
        <ele>660.253233</ele>
        <time>2022-03-05T15:25:29Z</time>
      </trkpt>
      <trkpt lat="45.88176" lon="3.03041">
        <ele>667.067392</ele>
        <time>2022-03-05T15:27:21Z</time>
      </trkpt>
    </trkseg>
  </trk>
</gpx>